Time,TemperatureF,DewpointF,PressureIn,WindDirection,WindDirectionDegrees,WindSpeedMPH,WindSpeedGustMPH,Humidity,HourlyPrecipIn,Conditions,Clouds,dailyrainin,SoftwareType,DateUTC
2015-05-22 00:09:00,49.1,46.0,30.13,SSE,160,0.0,0.0,90,0.00,,,0.00,weatherlink.com 1.10,2015-05-22 05:09:00,
2015-05-22 00:24:00,48.9,46.0,30.13,SSE,160,0.0,0.0,91,0.00,,,0.00,weatherlink.com 1.10,2015-05-22 05:24:00,
2015-05-22 00:39:00,48.9,46.0,30.13,SSE,160,0.0,0.0,91,0.00,,,0.00,weatherlink.com 1.10,2015-05-22 05:39:00,
2015-05-22 00:54:00,48.6,46.0,30.13,SSE,160,0.0,0.0,91,0.00,,,0.00,weatherlink.com 1.10,2015-05-22 05:54:00,
2015-05-22 01:09:00,47.8,46.0,30.13,SSE,160,0.0,0.0,92,0.00,,,0.00,weatherlink.com 1.10,2015-05-22 06:09:00,
2015-05-22 01:24:00,47.7,46.0,30.13,SSE,160,0.0,0.0,93,0.00,,,0.00,weatherlink.com 1.10,2015-05-22 06:24:00,
2015-05-22 01:39:00,47.5,46.0,30.13,SSE,160,0.0,0.0,93,0.00,,,0.00,weatherlink.com 1.10,2015-05-22 06:39:00,
2015-05-22 01:54:00,47.6,46.0,30.14,SSE,160,0.0,0.0,94,0.00,,,0.00,weatherlink.com 1.10,2015-05-22 06:54:00,
2015-05-22 02:10:00,47.8,46.0,30.14,SSE,160,0.0,0.0,94,0.00,,,0.00,weatherlink.com 1.10,2015-05-22 07:10:00,
2015-05-22 02:24:00,47.6,46.0,30.14,SSE,160,0.0,0.0,94,0.00,,,0.00,weatherlink.com 1.10,2015-05-22 07:24:00,
2015-05-22 02:39:00,47.5,46.0,30.14,SSE,160,0.0,0.0,95,0.00,,,0.00,weatherlink.com 1.10,2015-05-22 07:39:00,
2015-05-22 02:54:00,47.1,46.0,30.14,SSE,160,0.0,0.0,94,0.00,,,0.00,weatherlink.com 1.10,2015-05-22 07:54:00,
2015-05-22 03:09:00,47.0,45.0,30.14,SSE,160,0.0,0.0,94,0.00,,,0.00,weatherlink.com 1.10,2015-05-22 08:09:00,
2015-05-22 03:24:00,47.0,46.0,30.15,SSE,160,0.0,0.0,95,0.00,,,0.00,weatherlink.com 1.10,2015-05-22 08:24:00,
2015-05-22 03:39:00,46.9,46.0,30.15,SSE,160,0.0,0.0,95,0.00,,,0.00,weatherlink.com 1.10,2015-05-22 08:39:00,
2015-05-22 03:54:00,47.0,46.0,30.15,SSE,160,0.0,0.0,95,0.00,,,0.00,weatherlink.com 1.10,2015-05-22 08:54:00,
2015-05-22 04:09:00,47.3,46.0,30.15,SSE,160,0.0,0.0,95,0.00,,,0.00,weatherlink.com 1.10,2015-05-22 09:09:00,
2015-05-22 04:24:00,47.3,46.0,30.16,SSE,160,0.0,0.0,96,0.00,,,0.00,weatherlink.com 1.10,2015-05-22 09:24:00,
2015-05-22 04:39:00,47.3,46.0,30.16,SSE,160,0.0,0.0,96,0.00,,,0.00,weatherlink.com 1.10,2015-05-22 09:39:00,
2015-05-22 04:55:00,47.2,46.0,30.16,SSE,160,0.0,0.0,96,0.00,,,0.00,weatherlink.com 1.10,2015-05-22 09:55:00,
2015-05-22 05:25:00,46.9,46.0,30.16,SSE,160,0.0,0.0,96,0.00,,,0.00,weatherlink.com 1.10,2015-05-22 10:25:00,
2015-05-22 05:40:00,46.7,46.0,30.16,SSE,160,0.0,0.0,96,0.00,,,0.00,weatherlink.com 1.10,2015-05-22 10:40:00,
2015-05-22 05:55:00,46.8,46.0,30.16,SSE,160,0.0,0.0,96,0.00,,,0.00,weatherlink.com 1.10,2015-05-22 10:55:00,
2015-05-22 06:10:00,46.9,46.0,30.16,SSE,160,0.0,0.0,97,0.00,,,0.00,weatherlink.com 1.10,2015-05-22 11:10:00,
2015-05-22 06:25:00,47.4,47.0,30.17,SSE,160,0.0,0.0,97,0.00,,,0.00,weatherlink.com 1.10,2015-05-22 11:25:00,
2015-05-22 06:40:00,48.2,47.0,30.18,SSE,160,0.0,0.0,97,0.00,,,0.00,weatherlink.com 1.10,2015-05-22 11:40:00,
2015-05-22 06:55:00,49.6,49.0,30.18,SSE,160,0.0,0.0,97,0.00,,,0.00,weatherlink.com 1.10,2015-05-22 11:55:00,
2015-05-22 07:10:00,51.8,50.0,30.18,ESE,108,1.0,3.0,92,0.00,,,0.00,weatherlink.com 1.10,2015-05-22 12:10:00,
2015-05-22 07:25:00,55.2,50.0,30.18,ENE,58,0.0,2.0,83,0.00,,,0.00,weatherlink.com 1.10,2015-05-22 12:25:00,
2015-05-22 07:40:00,57.4,51.0,30.18,ESE,120,0.0,3.0,79,0.00,,,0.00,weatherlink.com 1.10,2015-05-22 12:40:00,
2015-05-22 07:55:00,59.2,51.0,30.18,East,95,0.0,4.0,74,0.00,,,0.00,weatherlink.com 1.10,2015-05-22 12:55:00,
2015-05-22 08:10:00,61.3,51.0,30.18,SW,218,1.0,4.0,68,0.00,,,0.00,weatherlink.com 1.10,2015-05-22 13:10:00,
2015-05-22 08:25:00,62.8,50.0,30.19,SSE,153,1.0,3.0,64,0.00,,,0.00,weatherlink.com 1.10,2015-05-22 13:25:00,
2015-05-22 08:40:00,63.8,51.0,30.19,SE,143,0.0,6.0,63,0.00,,,0.00,weatherlink.com 1.10,2015-05-22 13:40:00,
2015-05-22 08:55:00,64.1,51.0,30.19,South,172,1.0,5.0,62,0.00,,,0.00,weatherlink.com 1.10,2015-05-22 13:55:00,
2015-05-22 09:10:00,64.2,50.0,30.19,SSE,149,2.0,7.0,61,0.00,,,0.00,weatherlink.com 1.10,2015-05-22 14:10:00,
2015-05-22 09:25:00,65.1,51.0,30.20,East,98,1.0,3.0,60,0.00,,,0.00,weatherlink.com 1.10,2015-05-22 14:25:00,
2015-05-22 09:40:00,65.1,51.0,30.20,SE,143,1.0,6.0,61,0.00,,,0.00,weatherlink.com 1.10,2015-05-22 14:40:00,
2015-05-22 09:55:00,65.6,52.0,30.20,East,98,1.0,6.0,61,0.00,,,0.00,weatherlink.com 1.10,2015-05-22 14:55:00,
2015-05-22 10:10:00,66.0,52.0,30.20,NNE,29,2.0,6.0,60,0.00,,,0.00,weatherlink.com 1.10,2015-05-22 15:10:00,
2015-05-22 10:25:00,67.5,52.0,30.19,SE,134,1.0,4.0,58,0.00,,,0.00,weatherlink.com 1.10,2015-05-22 15:25:00,
2015-05-22 10:40:00,67.6,52.0,30.20,NNW,338,1.0,7.0,57,0.00,,,0.00,weatherlink.com 1.10,2015-05-22 15:40:00,
2015-05-22 10:55:00,69.6,52.0,30.20,WSW,255,1.0,4.0,53,0.00,,,0.00,weatherlink.com 1.10,2015-05-22 15:55:00,
2015-05-22 11:11:00,70.5,51.0,30.20,NNW,334,3.0,11.0,51,0.00,,,0.00,weatherlink.com 1.10,2015-05-22 16:11:00,
2015-05-22 11:26:00,71.1,52.0,30.20,NNW,327,0.0,6.0,51,0.00,,,0.00,weatherlink.com 1.10,2015-05-22 16:26:00,
2015-05-22 11:41:00,71.9,52.0,30.20,ESE,115,2.0,4.0,49,0.00,,,0.00,weatherlink.com 1.10,2015-05-22 16:41:00,
2015-05-22 11:56:00,72.7,51.0,30.19,NNW,332,1.0,4.0,46,0.00,,,0.00,weatherlink.com 1.10,2015-05-22 16:56:00,
2015-05-22 12:11:00,72.4,49.0,30.19,SSW,192,0.0,5.0,44,0.00,,,0.00,weatherlink.com 1.10,2015-05-22 17:11:00,
2015-05-22 12:26:00,73.6,50.0,30.20,NNW,328,4.0,4.0,44,0.00,,,0.00,weatherlink.com 1.10,2015-05-22 17:26:00,
2015-05-22 12:40:00,74.3,50.0,30.19,NNE,27,0.0,4.0,43,0.00,,,0.00,weatherlink.com 1.10,2015-05-22 17:40:00,
2015-05-22 12:55:00,76.0,49.0,30.19,NNW,347,2.0,4.0,39,0.00,,,0.00,weatherlink.com 1.10,2015-05-22 17:55:00,
2015-05-22 13:10:00,77.3,49.0,30.19,North,9,5.0,5.0,37,0.00,,,0.00,weatherlink.com 1.10,2015-05-22 18:10:00,
2015-05-22 13:25:00,77.8,48.0,30.20,SSE,148,1.0,4.0,35,0.00,,,0.00,weatherlink.com 1.10,2015-05-22 18:25:00,
2015-05-22 13:41:00,78.0,41.0,30.19,North,2,1.0,3.0,27,0.00,,,0.00,weatherlink.com 1.10,2015-05-22 18:41:00,
2015-05-22 13:55:00,78.4,45.0,30.19,NNW,338,1.0,2.0,31,0.00,,,0.00,weatherlink.com 1.10,2015-05-22 18:55:00,
2015-05-22 14:11:00,78.5,47.0,30.19,NE,41,0.0,2.0,33,0.00,,,0.00,weatherlink.com 1.10,2015-05-22 19:11:00,
2015-05-22 14:25:00,77.7,46.0,30.18,NNE,28,2.0,5.0,33,0.00,,,0.00,weatherlink.com 1.10,2015-05-22 19:25:00,
2015-05-22 14:40:00,77.0,48.0,30.18,NNE,15,0.0,4.0,36,0.00,,,0.00,weatherlink.com 1.10,2015-05-22 19:40:00,
2015-05-22 14:56:00,77.1,51.0,30.18,NNW,348,1.0,1.0,40,0.00,,,0.00,weatherlink.com 1.10,2015-05-22 19:56:00,
2015-05-22 15:11:00,77.3,50.0,30.18,NNW,347,4.0,4.0,38,0.00,,,0.00,weatherlink.com 1.10,2015-05-22 20:11:00,
2015-05-22 15:26:00,77.6,49.0,30.18,ESE,106,1.0,4.0,36,0.00,,,0.00,weatherlink.com 1.10,2015-05-22 20:26:00,
2015-05-22 15:56:00,77.8,49.0,30.17,ESE,118,0.0,2.0,36,0.00,,,0.00,weatherlink.com 1.10,2015-05-22 20:56:00,
2015-05-22 16:11:00,77.0,52.0,30.17,West,265,1.0,4.0,42,0.00,,,0.00,weatherlink.com 1.10,2015-05-22 21:11:00,
2015-05-22 16:26:00,77.1,52.0,30.17,East,84,0.0,2.0,42,0.00,,,0.00,weatherlink.com 1.10,2015-05-22 21:26:00,
2015-05-22 16:41:00,77.6,53.0,30.16,ESE,114,0.0,2.0,42,0.00,,,0.00,weatherlink.com 1.10,2015-05-22 21:41:00,
2015-05-22 16:56:00,76.9,54.0,30.17,East,99,0.0,5.0,45,0.00,,,0.00,weatherlink.com 1.10,2015-05-22 21:56:00,
2015-05-22 17:11:00,76.9,53.0,30.17,SSW,196,0.0,6.0,44,0.00,,,0.00,weatherlink.com 1.10,2015-05-22 22:11:00,
2015-05-22 17:26:00,76.5,54.0,30.17,ESE,107,0.0,4.0,46,0.00,,,0.00,weatherlink.com 1.10,2015-05-22 22:26:00,
2015-05-22 17:41:00,75.6,53.0,30.18,SSW,212,1.0,3.0,45,0.00,,,0.00,weatherlink.com 1.10,2015-05-22 22:41:00,
2015-05-22 17:56:00,75.0,52.0,30.18,WSW,256,1.0,3.0,44,0.00,,,0.00,weatherlink.com 1.10,2015-05-22 22:56:00,
2015-05-22 18:11:00,74.9,54.0,30.17,ESE,107,0.0,2.0,49,0.00,,,0.00,weatherlink.com 1.10,2015-05-22 23:11:00,
2015-05-22 18:26:00,74.5,53.0,30.17,SSW,199,0.0,2.0,48,0.00,,,0.00,weatherlink.com 1.10,2015-05-22 23:26:00,
2015-05-22 18:41:00,73.9,52.0,30.17,ESE,122,0.0,1.0,47,0.00,,,0.00,weatherlink.com 1.10,2015-05-22 23:41:00,
2015-05-22 18:56:00,73.6,53.0,30.17,North,356,0.0,1.0,48,0.00,,,0.00,weatherlink.com 1.10,2015-05-22 23:56:00,
2015-05-22 19:11:00,72.9,54.0,30.18,ENE,77,0.0,0.0,52,0.00,,,0.00,weatherlink.com 1.10,2015-05-23 00:11:00,
2015-05-22 19:26:00,72.2,54.0,30.18,SE,127,0.0,1.0,53,0.00,,,0.00,weatherlink.com 1.10,2015-05-23 00:26:00,
2015-05-22 19:41:00,71.7,54.0,30.18,SE,127,0.0,0.0,53,0.00,,,0.00,weatherlink.com 1.10,2015-05-23 00:41:00,
2015-05-22 19:56:00,70.0,53.0,30.18,SE,127,0.0,0.0,56,0.00,,,0.00,weatherlink.com 1.10,2015-05-23 00:56:00,
2015-05-22 20:11:00,68.8,53.0,30.19,SE,127,0.0,0.0,58,0.00,,,0.00,weatherlink.com 1.10,2015-05-23 01:11:00,
2015-05-22 20:26:00,68.2,53.0,30.19,SE,127,0.0,0.0,59,0.00,,,0.00,weatherlink.com 1.10,2015-05-23 01:26:00,
2015-05-22 20:41:00,67.9,53.0,30.19,SE,127,0.0,0.0,60,0.00,,,0.00,weatherlink.com 1.10,2015-05-23 01:41:00,
2015-05-22 20:56:00,67.3,53.0,30.19,SE,127,0.0,0.0,60,0.00,,,0.00,weatherlink.com 1.10,2015-05-23 01:56:00,
2015-05-22 21:11:00,66.6,53.0,30.20,SE,127,0.0,0.0,62,0.00,,,0.00,weatherlink.com 1.10,2015-05-23 02:11:00,
2015-05-22 21:26:00,65.5,55.0,30.20,SE,127,0.0,0.0,68,0.00,,,0.00,weatherlink.com 1.10,2015-05-23 02:26:00,
2015-05-22 21:41:00,64.5,55.0,30.20,SE,127,0.0,0.0,71,0.00,,,0.00,weatherlink.com 1.10,2015-05-23 02:41:00,
2015-05-22 21:56:00,63.5,56.0,30.20,SE,127,0.0,0.0,76,0.00,,,0.00,weatherlink.com 1.10,2015-05-23 02:56:00,
2015-05-22 22:11:00,62.9,55.0,30.20,SE,127,0.0,0.0,75,0.00,,,0.00,weatherlink.com 1.10,2015-05-23 03:11:00,
2015-05-22 22:26:00,62.8,55.0,30.20,SE,127,0.0,0.0,75,0.00,,,0.00,weatherlink.com 1.10,2015-05-23 03:26:00,
2015-05-22 22:41:00,62.5,55.0,30.20,SE,127,0.0,0.0,76,0.00,,,0.00,weatherlink.com 1.10,2015-05-23 03:41:00,
2015-05-22 22:56:00,62.4,55.0,30.21,SE,127,0.0,0.0,77,0.00,,,0.00,weatherlink.com 1.10,2015-05-23 03:56:00,
2015-05-22 23:11:00,62.2,56.0,30.20,SE,127,0.0,0.0,80,0.00,,,0.00,weatherlink.com 1.10,2015-05-23 04:11:00,
2015-05-22 23:26:00,61.9,56.0,30.20,SE,127,0.0,0.0,82,0.00,,,0.00,weatherlink.com 1.10,2015-05-23 04:26:00,
2015-05-22 23:41:00,61.8,57.0,30.20,SE,127,0.0,0.0,84,0.00,,,0.00,weatherlink.com 1.10,2015-05-23 04:41:00,